Terminal Aerodrome Forecast
Issued by NWS Jackson, MS

Home | Current Version | Previous Version | Text Only | Print | Product List | Glossary On
Versions: 1 2 3 4 5 6 7 8 9 10 11 12 13 14
000
FTUS44 KJAN 100500
TAFHBG
TAF
KHBG 100520Z 1006/1106 VRB03KT P6SM VCSH SCT040 SCT100
     FM101100 VRB03KT P6SM VCTS SCT025 BKN040CB
     FM101800 30005KT P6SM VCTS SCT050CB BKN120
     FM110100 34005KT P6SM SKC=

USA.gov is the U.S. government's official web portal to all federal, state and local government web resources and services.